createdAt,value
2023-03-05T00:00:12.212Z,2.9
2023-03-05T00:03:12.236Z,2.7
2023-03-05T00:06:12.250Z,2.7
2023-03-05T00:09:12.339Z,2.7
2023-03-05T00:12:12.169Z,2.7
2023-03-05T00:15:12.206Z,2.7
2023-03-05T00:18:12.302Z,2.7
2023-03-05T00:21:12.235Z,2.7
2023-03-05T00:24:12.414Z,2.7
2023-03-05T00:27:12.150Z,2.7
2023-03-05T00:30:12.199Z,2.7
2023-03-05T00:33:12.208Z,2.7
2023-03-05T00:36:12.689Z,2.7
2023-03-05T00:39:12.275Z,2.7
2023-03-05T00:42:12.212Z,2.7
2023-03-05T00:45:12.186Z,2.6
2023-03-05T00:48:12.332Z,2.7
2023-03-05T00:51:12.310Z,2.6
2023-03-05T00:54:12.729Z,2.6
2023-03-05T00:57:12.155Z,2.6
2023-03-05T01:00:12.511Z,2.6
2023-03-05T01:03:12.391Z,2.6
2023-03-05T01:06:12.545Z,2.6
2023-03-05T01:09:12.236Z,2.6
2023-03-05T01:12:12.226Z,2.6
2023-03-05T01:15:13.811Z,2.6
2023-03-05T01:18:12.326Z,2.6
2023-03-05T01:21:12.274Z,2.6
2023-03-05T01:24:17.000Z,2.6
2023-03-05T01:27:22.874Z,2.6
2023-03-05T01:30:14.862Z,2.6
2023-03-05T01:33:13.181Z,2.6
2023-03-05T01:36:12.139Z,2.6
2023-03-05T01:39:12.238Z,2.6
2023-03-05T01:42:12.470Z,2.6
2023-03-05T01:45:13.222Z,2.5
2023-03-05T01:48:12.133Z,2.6
2023-03-05T01:51:12.149Z,2.6
2023-03-05T01:54:12.155Z,2.5
2023-03-05T01:57:12.156Z,2.5
2023-03-05T02:00:12.325Z,2.5
2023-03-05T02:03:12.102Z,2.5
2023-03-05T02:06:12.206Z,2.5
2023-03-05T02:09:12.498Z,2.5
2023-03-05T02:12:12.256Z,2.4
2023-03-05T02:15:12.290Z,2.4
2023-03-05T02:18:12.324Z,2.4
2023-03-05T02:21:12.240Z,2.2
2023-03-05T02:24:12.279Z,2.2
2023-03-05T02:27:12.354Z,2.2
2023-03-05T02:30:12.358Z,2.2
2023-03-05T02:33:12.107Z,2.2
2023-03-05T02:36:12.361Z,2.2
2023-03-05T02:39:12.408Z,2.4
2023-03-05T02:42:12.444Z,2.4
2023-03-05T02:45:12.658Z,2.5
2023-03-05T02:48:12.203Z,2.5
2023-03-05T02:51:12.282Z,2.4
2023-03-05T02:54:12.176Z,2.4
2023-03-05T02:57:12.120Z,2.4
2023-03-05T03:00:12.857Z,2.4
2023-03-05T03:03:12.512Z,2.5
2023-03-05T03:06:12.092Z,2.5
2023-03-05T03:09:12.128Z,2.5
2023-03-05T03:12:12.142Z,2.5
2023-03-05T03:15:12.485Z,2.5
2023-03-05T03:18:12.267Z,2.5
2023-03-05T03:21:12.176Z,2.5
2023-03-05T03:24:12.200Z,2.5
2023-03-05T03:27:12.185Z,2.5
2023-03-05T03:30:12.212Z,2.5
2023-03-05T03:33:12.156Z,2.5
2023-03-05T03:36:12.325Z,2.5
2023-03-05T03:39:12.152Z,2.4
2023-03-05T03:42:12.177Z,2.4
2023-03-05T03:45:12.184Z,2.4
2023-03-05T03:48:12.132Z,2.4
2023-03-05T03:51:12.163Z,2.4
2023-03-05T03:54:12.173Z,2.2
2023-03-05T03:57:12.132Z,2.2
2023-03-05T04:00:12.189Z,2.2
2023-03-05T04:03:12.077Z,2.2
2023-03-05T04:06:12.097Z,2.2
2023-03-05T04:09:12.105Z,2.2
2023-03-05T04:12:12.124Z,2.2
2023-03-05T04:15:12.174Z,2.2
2023-03-05T04:18:12.177Z,2.2
2023-03-05T04:21:12.164Z,2.2
2023-03-05T04:24:12.194Z,2.2
2023-03-05T04:27:12.151Z,2.2
2023-03-05T04:30:12.167Z,2.2
2023-03-05T04:33:12.140Z,2.2
2023-03-05T04:36:12.110Z,2.2
2023-03-05T04:39:12.134Z,2.2
2023-03-05T04:42:12.107Z,2.2
2023-03-05T04:45:12.107Z,2.2
2023-03-05T04:48:12.154Z,2.2
2023-03-05T04:51:12.236Z,2.2
2023-03-05T04:54:12.160Z,2.2
2023-03-05T04:57:12.172Z,2.2
2023-03-05T05:00:12.524Z,2.4
2023-03-05T05:03:12.668Z,2.2
2023-03-05T05:06:12.073Z,2.4
2023-03-05T05:09:12.131Z,2.4
2023-03-05T05:12:12.249Z,2.4
2023-03-05T05:15:12.111Z,2.4
2023-03-05T05:18:12.146Z,2.4
2023-03-05T05:21:12.242Z,2.4
2023-03-05T05:24:12.170Z,2.4
2023-03-05T05:27:12.157Z,2.4
2023-03-05T05:30:12.176Z,2.2
2023-03-05T05:33:12.176Z,2.2
2023-03-05T05:36:12.272Z,2.1
2023-03-05T05:39:12.209Z,2.1
2023-03-05T05:42:12.134Z,2.1
2023-03-05T05:45:12.500Z,2.2
2023-03-05T05:48:12.163Z,2.2
2023-03-05T05:51:12.158Z,2.2
2023-03-05T05:54:12.285Z,2.1
2023-03-05T05:57:12.120Z,2.2
2023-03-05T06:00:12.397Z,2.2
2023-03-05T06:03:12.663Z,2.2
2023-03-05T06:06:12.415Z,2.2
2023-03-05T06:09:12.214Z,2.2
2023-03-05T06:12:12.153Z,2.4
2023-03-05T06:15:12.256Z,2.4
2023-03-05T06:18:12.182Z,2.5
2023-03-05T06:21:12.192Z,2.6
2023-03-05T06:24:42.724Z,2.7
2023-03-05T06:27:12.263Z,2.7
2023-03-05T06:30:12.607Z,2.9
2023-03-05T06:33:12.228Z,3
2023-03-05T06:36:12.453Z,3
2023-03-05T06:39:12.483Z,3.2
2023-03-05T06:42:12.192Z,3.4
2023-03-05T06:45:12.336Z,3.5
2023-03-05T06:48:12.266Z,3.6
2023-03-05T06:51:12.189Z,3.7
2023-03-05T06:54:12.385Z,3.9
2023-03-05T06:57:12.233Z,3.9
2023-03-05T07:00:12.398Z,4
2023-03-05T07:03:12.228Z,4
2023-03-05T07:06:12.276Z,4.1
2023-03-05T07:09:12.183Z,4.1
2023-03-05T07:12:12.306Z,4.2
2023-03-05T07:15:12.253Z,4.2
2023-03-05T07:18:12.259Z,4.2
2023-03-05T07:21:12.191Z,4.2
2023-03-05T07:24:12.228Z,4.2
2023-03-05T07:27:12.174Z,4.1
2023-03-05T07:30:12.299Z,4.2
2023-03-05T07:33:12.227Z,4.4
2023-03-05T07:36:12.241Z,4.5
2023-03-05T07:39:12.317Z,4.6
2023-03-05T07:42:12.408Z,5
2023-03-05T07:45:12.410Z,5.4
2023-03-05T07:48:12.240Z,5.4
2023-03-05T07:51:12.272Z,5
2023-03-05T07:54:12.303Z,4.7
2023-03-05T07:57:12.241Z,4.9
2023-03-05T08:00:12.701Z,5.1
2023-03-05T08:03:12.260Z,5.2
2023-03-05T08:06:12.228Z,5.7
2023-03-05T08:09:12.250Z,5.9
2023-03-05T08:12:12.280Z,6.2
2023-03-05T08:15:12.311Z,7.2
2023-03-05T08:18:12.539Z,8
2023-03-05T08:21:12.245Z,8.3
2023-03-05T08:24:12.385Z,8.4
2023-03-05T08:27:12.236Z,8.6
2023-03-05T08:30:12.328Z,9
2023-03-05T08:33:12.219Z,9
2023-03-05T08:36:12.267Z,8.6
2023-03-05T08:39:12.286Z,8.3
2023-03-05T08:42:15.259Z,8.6
2023-03-05T08:45:12.486Z,8.6
2023-03-05T08:48:12.232Z,8.6
2023-03-05T08:51:12.434Z,8.8
2023-03-05T08:54:12.185Z,8.5
2023-03-05T08:57:12.606Z,7.6
2023-03-05T09:00:12.503Z,7
2023-03-05T09:03:12.804Z,6
2023-03-05T09:06:12.264Z,5.1
2023-03-05T09:09:12.221Z,4.4
2023-03-05T09:12:14.394Z,3.7
2023-03-05T09:15:12.290Z,3.5
2023-03-05T09:18:12.315Z,3.1
2023-03-05T09:21:12.306Z,2.9
2023-03-05T09:24:12.281Z,3.5
2023-03-05T09:27:12.339Z,5.2
2023-03-05T09:30:12.279Z,7.6
2023-03-05T09:33:12.254Z,9.1
2023-03-05T09:36:12.240Z,9.5
2023-03-05T09:39:12.253Z,9.4
2023-03-05T09:42:14.625Z,9.5
2023-03-05T09:45:12.205Z,9.1
2023-03-05T09:48:12.216Z,8.4
2023-03-05T09:51:12.360Z,7.9
2023-03-05T09:54:14.339Z,7.2
2023-03-05T09:57:12.238Z,6.6
2023-03-05T10:00:12.478Z,6.2
2023-03-05T10:03:12.774Z,6.5
2023-03-05T10:06:12.343Z,7.4
2023-03-05T10:09:12.181Z,9.6
2023-03-05T10:12:12.462Z,13.8
2023-03-05T10:15:12.172Z,15.4
2023-03-05T10:18:12.180Z,16.8
2023-03-05T10:21:12.306Z,16.9
2023-03-05T10:24:12.287Z,16.9
2023-03-05T10:27:12.815Z,17.9
2023-03-05T10:30:12.345Z,17.1
2023-03-05T10:33:12.235Z,15.8
2023-03-05T10:36:12.229Z,14.5
2023-03-05T10:39:12.213Z,14.6
2023-03-05T10:42:12.284Z,13.5
2023-03-05T10:45:13.909Z,12.8
2023-03-05T10:48:12.280Z,11.4
2023-03-05T10:51:12.238Z,11.9
2023-03-05T10:54:12.181Z,12.6
2023-03-05T10:57:12.230Z,11.9
2023-03-05T11:00:12.353Z,12.6
2023-03-05T11:03:12.381Z,13.1
2023-03-05T11:06:12.165Z,12
2023-03-05T11:09:12.253Z,10.5
2023-03-05T11:12:12.258Z,9.3
2023-03-05T11:15:12.253Z,8.6
2023-03-05T11:18:12.274Z,9.1
2023-03-05T11:21:12.222Z,9.9
2023-03-05T11:24:12.254Z,10.3
2023-03-05T11:27:12.276Z,9.9
2023-03-05T11:30:12.569Z,9.4
2023-03-05T11:33:14.757Z,9.3
2023-03-05T11:36:12.470Z,10.1
2023-03-05T11:39:12.288Z,12
2023-03-05T11:42:12.291Z,13.6
2023-03-05T11:45:12.365Z,15
2023-03-05T11:48:12.196Z,16
2023-03-05T11:51:12.307Z,16.4
2023-03-05T11:54:12.213Z,16.6
2023-03-05T11:57:12.246Z,16.1
2023-03-05T12:00:12.353Z,16.5
2023-03-05T12:03:13.007Z,17.1
2023-03-05T12:06:12.294Z,16.8
2023-03-05T12:09:12.397Z,15.3
2023-03-05T12:12:12.259Z,14.3
2023-03-05T12:15:12.218Z,13.5
2023-03-05T12:18:12.275Z,12.8
2023-03-05T12:21:12.311Z,12.6
2023-03-05T12:24:12.174Z,11.8
2023-03-05T12:27:12.217Z,11.4
2023-03-05T12:30:12.306Z,11.1
2023-03-05T12:33:12.486Z,10.4
2023-03-05T12:36:12.627Z,9.5
2023-03-05T12:39:12.396Z,8.9
2023-03-05T12:42:12.436Z,8.5
2023-03-05T12:45:12.316Z,8.1
2023-03-05T12:48:12.327Z,8.3
2023-03-05T12:51:12.278Z,7.9
2023-03-05T12:54:12.234Z,7.6
2023-03-05T12:57:12.397Z,8.1
2023-03-05T13:00:12.439Z,9.8
2023-03-05T13:03:12.383Z,10.1
2023-03-05T13:06:12.325Z,9.9
2023-03-05T13:09:12.457Z,9.3
2023-03-05T13:12:12.666Z,8.9
2023-03-05T13:15:12.366Z,8.6
2023-03-05T13:18:12.356Z,9.3
2023-03-05T13:21:12.279Z,11
2023-03-05T13:24:13.757Z,11.8
2023-03-05T13:27:12.312Z,12.1
2023-03-05T13:30:12.323Z,12.4
2023-03-05T13:33:12.413Z,12.2
2023-03-05T13:36:12.429Z,11.6
2023-03-05T13:39:12.586Z,11.1
2023-03-05T13:42:12.260Z,10.3
2023-03-05T13:45:12.330Z,9.4
2023-03-05T13:48:12.415Z,9.9
2023-03-05T13:51:12.216Z,11.1
2023-03-05T13:54:12.254Z,12.5
2023-03-05T13:57:12.232Z,13
2023-03-05T14:00:12.602Z,12.9
2023-03-05T14:03:12.510Z,13.3
2023-03-05T14:06:12.252Z,13.3
2023-03-05T14:09:12.314Z,12.6
2023-03-05T14:12:12.344Z,11.8
2023-03-05T14:15:12.575Z,10.8
2023-03-05T14:18:12.230Z,10.1
2023-03-05T14:21:12.416Z,9.4
2023-03-05T14:24:12.238Z,8.8
2023-03-05T14:27:12.337Z,8
2023-03-05T14:30:12.311Z,7.6
2023-03-05T14:33:12.245Z,8
2023-03-05T14:36:12.506Z,9.4
2023-03-05T14:39:12.294Z,9.6
2023-03-05T14:42:12.168Z,10
2023-03-05T14:45:12.232Z,11.5
2023-03-05T14:48:12.252Z,12.1
2023-03-05T14:51:12.253Z,12.8
2023-03-05T14:54:12.299Z,14.3
2023-03-05T14:57:12.420Z,14.1
2023-03-05T15:00:12.733Z,15.4
2023-03-05T15:03:12.371Z,16.1
2023-03-05T15:06:12.262Z,15.3
2023-03-05T15:09:12.246Z,14.1
2023-03-05T15:12:12.241Z,13.3
2023-03-05T15:15:12.981Z,12.4
2023-03-05T15:18:12.151Z,11.6
2023-03-05T15:21:12.154Z,10.8
2023-03-05T15:24:13.945Z,9.6
2023-03-05T15:27:12.280Z,8.9
2023-03-05T15:30:12.550Z,8.1
2023-03-05T15:33:12.181Z,7.6
2023-03-05T15:36:12.281Z,7.5
2023-03-05T15:39:12.247Z,7.5
2023-03-05T15:42:15.160Z,7.5
2023-03-05T15:45:12.307Z,8.1
2023-03-05T15:48:12.306Z,8.4
2023-03-05T15:51:12.203Z,8.3
2023-03-05T15:54:12.133Z,8
2023-03-05T15:57:12.276Z,7.7
2023-03-05T16:00:12.432Z,7.5
2023-03-05T16:03:12.705Z,7.4
2023-03-05T16:06:12.296Z,7.2
2023-03-05T16:09:12.207Z,7.1
2023-03-05T16:12:12.189Z,7
2023-03-05T16:15:12.255Z,7
2023-03-05T16:18:12.321Z,6.9
2023-03-05T16:21:12.162Z,6.7
2023-03-05T16:24:12.229Z,6.6
2023-03-05T16:27:12.252Z,6.5
2023-03-05T16:30:12.361Z,6.4
2023-03-05T16:33:12.350Z,6.2
2023-03-05T16:36:12.356Z,6
2023-03-05T16:39:12.197Z,5.9
2023-03-05T16:42:12.225Z,5.6
2023-03-05T16:45:12.262Z,5.5
2023-03-05T16:48:12.420Z,5.4
2023-03-05T16:51:12.265Z,5.2
2023-03-05T16:54:14.522Z,5.1
2023-03-05T16:57:13.108Z,5.1
2023-03-05T17:00:12.340Z,5.1
2023-03-05T17:03:12.204Z,5
2023-03-05T17:06:12.177Z,5
2023-03-05T17:09:12.211Z,5
2023-03-05T17:12:12.169Z,4.9
2023-03-05T17:15:12.233Z,4.9
2023-03-05T17:18:12.122Z,4.9
2023-03-05T17:21:12.157Z,4.9
2023-03-05T17:24:12.141Z,4.7
2023-03-05T17:27:12.203Z,4.7
2023-03-05T17:30:12.416Z,4.7
2023-03-05T17:33:12.722Z,4.7
2023-03-05T17:36:12.183Z,4.7
2023-03-05T17:39:12.195Z,4.7
2023-03-05T17:42:12.168Z,4.7
2023-03-05T17:45:12.536Z,4.7
2023-03-05T17:48:12.184Z,4.7
2023-03-05T17:51:12.244Z,4.7
2023-03-05T17:54:12.111Z,4.7
2023-03-05T17:57:12.124Z,4.7
2023-03-05T18:00:12.305Z,4.6
2023-03-05T18:03:12.171Z,4.6
2023-03-05T18:06:12.246Z,4.5
2023-03-05T18:09:12.210Z,4.5
2023-03-05T18:12:12.250Z,4.5
2023-03-05T18:15:12.186Z,4.5
2023-03-05T18:18:12.244Z,4.5
2023-03-05T18:21:12.166Z,4.5
2023-03-05T18:24:12.098Z,4.5
2023-03-05T18:27:12.170Z,4.5
2023-03-05T18:30:12.178Z,4.5
2023-03-05T18:33:12.227Z,4.5
2023-03-05T18:36:12.277Z,4.5
2023-03-05T18:39:12.243Z,4.5
2023-03-05T18:42:12.169Z,4.5
2023-03-05T18:45:12.222Z,4.5
2023-03-05T18:48:12.152Z,4.5
2023-03-05T18:51:13.396Z,4.5
2023-03-05T18:54:12.191Z,4.5
2023-03-05T18:57:12.183Z,4.5
2023-03-05T19:00:12.305Z,4.4
2023-03-05T19:03:12.151Z,4.4
2023-03-05T19:06:12.206Z,4.4
2023-03-05T19:09:12.145Z,4.4
2023-03-05T19:12:12.168Z,4.4
2023-03-05T19:15:12.173Z,4.4
2023-03-05T19:18:12.220Z,4.4
2023-03-05T19:21:12.465Z,4.4
2023-03-05T19:24:12.280Z,4.4
2023-03-05T19:27:12.224Z,4.4
2023-03-05T19:30:12.231Z,4.5
2023-03-05T19:33:12.135Z,4.5
2023-03-05T19:36:12.129Z,4.4
2023-03-05T19:39:12.156Z,4.4
2023-03-05T19:42:12.133Z,4.4
2023-03-05T19:45:12.196Z,4.4
2023-03-05T19:48:12.189Z,4.4
2023-03-05T19:51:12.210Z,4.2
2023-03-05T19:54:12.232Z,4.2
2023-03-05T19:57:12.194Z,4.2
2023-03-05T20:00:12.392Z,4.2
2023-03-05T20:03:12.165Z,4.2
2023-03-05T20:06:12.160Z,4.2
2023-03-05T20:09:14.677Z,4.1
2023-03-05T20:12:12.187Z,4.1
2023-03-05T20:15:12.158Z,4
2023-03-05T20:18:14.442Z,4
2023-03-05T20:21:12.182Z,3.9
2023-03-05T20:24:14.371Z,3.9
2023-03-05T20:27:12.121Z,3.7
2023-03-05T20:30:12.217Z,3.6
2023-03-05T20:33:12.169Z,3.6
2023-03-05T20:36:12.150Z,3.5
2023-03-05T20:39:12.203Z,3.5
2023-03-05T20:42:12.129Z,3.5
2023-03-05T20:45:12.138Z,3.4
2023-03-05T20:48:12.182Z,3.4
2023-03-05T20:51:12.186Z,3.4
2023-03-05T20:54:12.191Z,3.2
2023-03-05T20:57:12.257Z,3.2
2023-03-05T21:00:12.178Z,3.2
2023-03-05T21:03:12.229Z,3.1
2023-03-05T21:06:12.141Z,3.1
2023-03-05T21:09:12.204Z,3
2023-03-05T21:12:12.159Z,2.9
2023-03-05T21:15:12.202Z,2.9
2023-03-05T21:18:12.167Z,2.7
2023-03-05T21:21:12.199Z,2.7
2023-03-05T21:24:12.234Z,2.9
2023-03-05T21:27:12.116Z,2.9
2023-03-05T21:30:12.496Z,2.9
2023-03-05T21:33:12.186Z,2.9
2023-03-05T21:36:12.274Z,3
2023-03-05T21:39:12.283Z,3.1
2023-03-05T21:42:12.183Z,3.4
2023-03-05T21:45:12.383Z,3.4
2023-03-05T21:48:12.117Z,3.5
2023-03-05T21:51:12.387Z,3.5
2023-03-05T21:54:12.154Z,3.5
2023-03-05T21:57:12.369Z,3.6
2023-03-05T22:00:12.244Z,3.6
2023-03-05T22:03:12.191Z,3.5
2023-03-05T22:06:12.132Z,3.5
2023-03-05T22:09:12.110Z,3.4
2023-03-05T22:12:12.287Z,3.4
2023-03-05T22:15:12.133Z,3.4
2023-03-05T22:18:12.119Z,3.2
2023-03-05T22:21:12.151Z,3.2
2023-03-05T22:24:12.108Z,3.1
2023-03-05T22:27:12.225Z,3.1
2023-03-05T22:30:12.224Z,3.1
2023-03-05T22:33:12.110Z,3.1
2023-03-05T22:36:12.249Z,3
2023-03-05T22:39:12.182Z,3
2023-03-05T22:42:12.094Z,3
2023-03-05T22:45:12.130Z,3.1
2023-03-05T22:48:12.255Z,3.1
2023-03-05T22:51:12.206Z,3.1
2023-03-05T22:54:12.231Z,3.1
2023-03-05T22:57:12.130Z,3.1
2023-03-05T23:00:12.848Z,3.1
2023-03-05T23:03:12.483Z,3.2
2023-03-05T23:06:12.259Z,3.2
2023-03-05T23:09:12.238Z,3.2
2023-03-05T23:12:12.132Z,3.2
2023-03-05T23:15:12.638Z,3.2
2023-03-05T23:18:12.194Z,3.2
2023-03-05T23:21:12.227Z,3.4
2023-03-05T23:24:12.116Z,3.2
2023-03-05T23:27:12.223Z,3.4
2023-03-05T23:30:12.174Z,3.4
2023-03-05T23:33:12.185Z,3.2
2023-03-05T23:36:12.453Z,3.2
2023-03-05T23:39:12.214Z,3.2
2023-03-05T23:42:12.195Z,3.2
2023-03-05T23:45:12.197Z,3.2
2023-03-05T23:48:12.223Z,3.2
2023-03-05T23:51:12.202Z,3.2
2023-03-05T23:54:12.184Z,3.2
2023-03-05T23:57:12.173Z,3.1
